sensor_id;sensor_type;location;lat;lon;timestamp;P1;durP1;ratioP1;P2;durP2;ratioP2
6007;SDS011;3032;49.484;11.112;2024-02-15T00:01:20;5.30;;;4.80;;
6007;SDS011;3032;49.484;11.112;2024-02-15T00:03:46;7.10;;;6.50;;
6007;SDS011;3032;49.484;11.112;2024-02-15T00:06:11;7.50;;;6.80;;
6007;SDS011;3032;49.484;11.112;2024-02-15T00:08:37;6.67;;;6.03;;
6007;SDS011;3032;49.484;11.112;2024-02-15T00:11:03;5.70;;;5.20;;
6007;SDS011;3032;49.484;11.112;2024-02-15T00:13:28;6.20;;;5.63;;
6007;SDS011;3032;49.484;11.112;2024-02-15T00:15:54;7.90;;;6.25;;
6007;SDS011;3032;49.484;11.112;2024-02-15T00:18:20;6.60;;;5.60;;
6007;SDS011;3032;49.484;11.112;2024-02-15T00:20:46;7.57;;;6.87;;
6007;SDS011;3032;49.484;11.112;2024-02-15T00:23:12;6.17;;;5.67;;
6007;SDS011;3032;49.484;11.112;2024-02-15T00:25:37;6.67;;;6.03;;
6007;SDS011;3032;49.484;11.112;2024-02-15T00:28:03;5.93;;;4.73;;
6007;SDS011;3032;49.484;11.112;2024-02-15T00:30:28;5.87;;;5.37;;
6007;SDS011;3032;49.484;11.112;2024-02-15T00:32:54;5.50;;;5.00;;
6007;SDS011;3032;49.484;11.112;2024-02-15T00:35:20;4.70;;;4.27;;
6007;SDS011;3032;49.484;11.112;2024-02-15T00:37:46;6.77;;;4.80;;
6007;SDS011;3032;49.484;11.112;2024-02-15T00:40:12;5.90;;;5.32;;
6007;SDS011;3032;49.484;11.112;2024-02-15T00:42:38;6.67;;;6.03;;
6007;SDS011;3032;49.484;11.112;2024-02-15T00:45:04;9.45;;;5.90;;
6007;SDS011;3032;49.484;11.112;2024-02-15T00:47:30;5.40;;;4.97;;
6007;SDS011;3032;49.484;11.112;2024-02-15T00:49:55;8.03;;;5.30;;
6007;SDS011;3032;49.484;11.112;2024-02-15T00:52:21;6.33;;;5.10;;
6007;SDS011;3032;49.484;11.112;2024-02-15T00:54:47;5.88;;;5.28;;
6007;SDS011;3032;49.484;11.112;2024-02-15T00:57:13;7.73;;;6.17;;
6007;SDS011;3032;49.484;11.112;2024-02-15T00:59:38;4.80;;;4.40;;
6007;SDS011;3032;49.484;11.112;2024-02-15T01:02:04;5.07;;;4.67;;
6007;SDS011;3032;49.484;11.112;2024-02-15T01:04:32;5.70;;;5.25;;
6007;SDS011;3032;49.484;11.112;2024-02-15T01:06:58;6.93;;;5.25;;
6007;SDS011;3032;49.484;11.112;2024-02-15T01:09:24;5.47;;;4.70;;
6007;SDS011;3032;49.484;11.112;2024-02-15T01:11:49;5.33;;;4.93;;
6007;SDS011;3032;49.484;11.112;2024-02-15T01:14:15;5.83;;;5.40;;
6007;SDS011;3032;49.484;11.112;2024-02-15T01:16:41;6.40;;;5.80;;
6007;SDS011;3032;49.484;11.112;2024-02-15T01:19:07;5.55;;;5.07;;
6007;SDS011;3032;49.484;11.112;2024-02-15T01:21:32;6.10;;;5.60;;
6007;SDS011;3032;49.484;11.112;2024-02-15T01:23:58;5.47;;;4.90;;
6007;SDS011;3032;49.484;11.112;2024-02-15T01:26:25;7.38;;;4.90;;
6007;SDS011;3032;49.484;11.112;2024-02-15T01:28:51;6.43;;;5.82;;
6007;SDS011;3032;49.484;11.112;2024-02-15T01:31:17;6.10;;;5.60;;
6007;SDS011;3032;49.484;11.112;2024-02-15T01:33:43;5.20;;;4.70;;
6007;SDS011;3032;49.484;11.112;2024-02-15T01:36:13;5.80;;;5.20;;
6007;SDS011;3032;49.484;11.112;2024-02-15T01:38:42;6.28;;;5.78;;
6007;SDS011;3032;49.484;11.112;2024-02-15T01:41:08;5.60;;;4.95;;
6007;SDS011;3032;49.484;11.112;2024-02-15T01:43:35;6.23;;;5.33;;
6007;SDS011;3032;49.484;11.112;2024-02-15T01:46:01;5.88;;;5.35;;
6007;SDS011;3032;49.484;11.112;2024-02-15T01:48:32;7.07;;;6.25;;
6007;SDS011;3032;49.484;11.112;2024-02-15T01:50:58;7.13;;;5.87;;
6007;SDS011;3032;49.484;11.112;2024-02-15T01:53:24;6.55;;;5.30;;
6007;SDS011;3032;49.484;11.112;2024-02-15T01:55:51;5.55;;;5.15;;
6007;SDS011;3032;49.484;11.112;2024-02-15T01:58:18;9.85;;;5.43;;
6007;SDS011;3032;49.484;11.112;2024-02-15T02:00:44;5.28;;;4.78;;
6007;SDS011;3032;49.484;11.112;2024-02-15T02:03:10;6.20;;;5.60;;
6007;SDS011;3032;49.484;11.112;2024-02-15T02:05:39;6.40;;;5.20;;
6007;SDS011;3032;49.484;11.112;2024-02-15T02:08:06;5.25;;;4.85;;
6007;SDS011;3032;49.484;11.112;2024-02-15T02:10:34;4.82;;;4.32;;
6007;SDS011;3032;49.484;11.112;2024-02-15T02:13:03;5.78;;;5.15;;
6007;SDS011;3032;49.484;11.112;2024-02-15T02:15:33;5.40;;;5.00;;
6007;SDS011;3032;49.484;11.112;2024-02-15T02:18:00;5.35;;;4.90;;
6007;SDS011;3032;49.484;11.112;2024-02-15T02:20:26;6.75;;;5.32;;
6007;SDS011;3032;49.484;11.112;2024-02-15T02:22:53;6.55;;;4.93;;
6007;SDS011;3032;49.484;11.112;2024-02-15T02:25:25;6.10;;;5.50;;
6007;SDS011;3032;49.484;11.112;2024-02-15T02:27:53;5.90;;;5.30;;
6007;SDS011;3032;49.484;11.112;2024-02-15T02:30:21;9.20;;;5.88;;
6007;SDS011;3032;49.484;11.112;2024-02-15T02:32:47;8.23;;;5.15;;
6007;SDS011;3032;49.484;11.112;2024-02-15T02:35:13;6.60;;;5.80;;
6007;SDS011;3032;49.484;11.112;2024-02-15T02:37:41;5.70;;;5.20;;
6007;SDS011;3032;49.484;11.112;2024-02-15T02:40:07;7.72;;;6.25;;
6007;SDS011;3032;49.484;11.112;2024-02-15T02:42:34;7.53;;;6.00;;
6007;SDS011;3032;49.484;11.112;2024-02-15T02:45:13;6.80;;;6.20;;
6007;SDS011;3032;49.484;11.112;2024-02-15T02:47:39;6.33;;;5.73;;
6007;SDS011;3032;49.484;11.112;2024-02-15T02:50:04;7.27;;;6.60;;
6007;SDS011;3032;49.484;11.112;2024-02-15T02:52:30;6.65;;;6.05;;
6007;SDS011;3032;49.484;11.112;2024-02-15T02:54:56;5.00;;;4.70;;
6007;SDS011;3032;49.484;11.112;2024-02-15T02:57:23;7.25;;;5.88;;
6007;SDS011;3032;49.484;11.112;2024-02-15T02:59:48;7.27;;;6.57;;
6007;SDS011;3032;49.484;11.112;2024-02-15T03:02:14;9.80;;;7.10;;
6007;SDS011;3032;49.484;11.112;2024-02-15T03:04:39;8.40;;;7.60;;
6007;SDS011;3032;49.484;11.112;2024-02-15T03:07:05;6.78;;;6.10;;
6007;SDS011;3032;49.484;11.112;2024-02-15T03:09:31;6.70;;;6.10;;
6007;SDS011;3032;49.484;11.112;2024-02-15T03:11:58;7.35;;;6.65;;
6007;SDS011;3032;49.484;11.112;2024-02-15T03:14:26;12.95;;;7.00;;
6007;SDS011;3032;49.484;11.112;2024-02-15T03:16:51;8.20;;;6.20;;
6007;SDS011;3032;49.484;11.112;2024-02-15T03:19:17;7.50;;;6.70;;
6007;SDS011;3032;49.484;11.112;2024-02-15T03:21:42;8.77;;;6.87;;
6007;SDS011;3032;49.484;11.112;2024-02-15T03:24:11;7.57;;;6.88;;
6007;SDS011;3032;49.484;11.112;2024-02-15T03:26:37;8.13;;;7.37;;
6007;SDS011;3032;49.484;11.112;2024-02-15T03:29:03;8.43;;;7.07;;
6007;SDS011;3032;49.484;11.112;2024-02-15T03:31:29;7.43;;;6.43;;
6007;SDS011;3032;49.484;11.112;2024-02-15T03:33:56;7.40;;;6.70;;
6007;SDS011;3032;49.484;11.112;2024-02-15T03:36:24;9.70;;;7.03;;
6007;SDS011;3032;49.484;11.112;2024-02-15T03:38:50;7.83;;;6.90;;
6007;SDS011;3032;49.484;11.112;2024-02-15T03:41:18;11.55;;;8.63;;
6007;SDS011;3032;49.484;11.112;2024-02-15T03:43:43;9.60;;;7.20;;
6007;SDS011;3032;49.484;11.112;2024-02-15T03:46:09;9.43;;;8.40;;
6007;SDS011;3032;49.484;11.112;2024-02-15T03:48:37;7.40;;;6.70;;
6007;SDS011;3032;49.484;11.112;2024-02-15T03:51:03;5.73;;;5.20;;
6007;SDS011;3032;49.484;11.112;2024-02-15T03:53:28;11.13;;;7.93;;
6007;SDS011;3032;49.484;11.112;2024-02-15T03:55:56;7.28;;;6.47;;
6007;SDS011;3032;49.484;11.112;2024-02-15T03:58:22;11.13;;;6.50;;
6007;SDS011;3032;49.484;11.112;2024-02-15T04:00:47;6.67;;;5.97;;
6007;SDS011;3032;49.484;11.112;2024-02-15T04:03:13;8.10;;;7.30;;
6007;SDS011;3032;49.484;11.112;2024-02-15T04:05:39;8.50;;;7.70;;
6007;SDS011;3032;49.484;11.112;2024-02-15T04:08:04;7.10;;;6.40;;
6007;SDS011;3032;49.484;11.112;2024-02-15T04:10:30;7.00;;;6.27;;
6007;SDS011;3032;49.484;11.112;2024-02-15T04:12:56;5.53;;;5.00;;
6007;SDS011;3032;49.484;11.112;2024-02-15T04:15:23;6.45;;;5.85;;
6007;SDS011;3032;49.484;11.112;2024-02-15T04:17:48;6.30;;;5.70;;
6007;SDS011;3032;49.484;11.112;2024-02-15T04:20:20;11.77;;;6.65;;
6007;SDS011;3032;49.484;11.112;2024-02-15T04:22:46;7.40;;;6.70;;
6007;SDS011;3032;49.484;11.112;2024-02-15T04:25:15;7.75;;;7.05;;
6007;SDS011;3032;49.484;11.112;2024-02-15T04:27:42;6.68;;;6.00;;
6007;SDS011;3032;49.484;11.112;2024-02-15T04:30:09;7.50;;;6.55;;
6007;SDS011;3032;49.484;11.112;2024-02-15T04:32:35;6.80;;;5.70;;
6007;SDS011;3032;49.484;11.112;2024-02-15T04:35:01;7.50;;;6.00;;
6007;SDS011;3032;49.484;11.112;2024-02-15T04:37:28;9.40;;;6.45;;
6007;SDS011;3032;49.484;11.112;2024-02-15T04:39:56;8.75;;;6.45;;
6007;SDS011;3032;49.484;11.112;2024-02-15T04:42:51;8.55;;;7.63;;
6007;SDS011;3032;49.484;11.112;2024-02-15T04:45:17;7.03;;;6.20;;
6007;SDS011;3032;49.484;11.112;2024-02-15T04:47:43;12.05;;;9.25;;
6007;SDS011;3032;49.484;11.112;2024-02-15T04:50:14;10.80;;;7.10;;
6007;SDS011;3032;49.484;11.112;2024-02-15T04:52:43;8.90;;;6.70;;
6007;SDS011;3032;49.484;11.112;2024-02-15T04:55:10;8.68;;;7.63;;
6007;SDS011;3032;49.484;11.112;2024-02-15T04:57:37;10.25;;;6.45;;
6007;SDS011;3032;49.484;11.112;2024-02-15T05:00:03;8.43;;;6.87;;
6007;SDS011;3032;49.484;11.112;2024-02-15T05:02:38;8.52;;;6.40;;
6007;SDS011;3032;49.484;11.112;2024-02-15T05:05:09;8.77;;;6.60;;
6007;SDS011;3032;49.484;11.112;2024-02-15T05:07:37;7.93;;;6.10;;
6007;SDS011;3032;49.484;11.112;2024-02-15T05:10:04;7.43;;;5.80;;
6007;SDS011;3032;49.484;11.112;2024-02-15T05:12:31;7.38;;;6.35;;
6007;SDS011;3032;49.484;11.112;2024-02-15T05:14:56;6.00;;;5.17;;
6007;SDS011;3032;49.484;11.112;2024-02-15T05:17:22;7.10;;;6.40;;
6007;SDS011;3032;49.484;11.112;2024-02-15T05:19:48;6.17;;;5.53;;
6007;SDS011;3032;49.484;11.112;2024-02-15T05:22:14;6.60;;;6.00;;
6007;SDS011;3032;49.484;11.112;2024-02-15T05:24:40;5.73;;;5.13;;
6007;SDS011;3032;49.484;11.112;2024-02-15T05:27:05;9.83;;;6.53;;
6007;SDS011;3032;49.484;11.112;2024-02-15T05:29:31;10.37;;;7.90;;
6007;SDS011;3032;49.484;11.112;2024-02-15T05:32:00;9.52;;;6.00;;
6007;SDS011;3032;49.484;11.112;2024-02-15T05:34:26;7.40;;;6.70;;
6007;SDS011;3032;49.484;11.112;2024-02-15T05:36:54;7.63;;;5.93;;
6007;SDS011;3032;49.484;11.112;2024-02-15T05:39:20;13.68;;;6.40;;
6007;SDS011;3032;49.484;11.112;2024-02-15T05:41:47;7.05;;;5.55;;
6007;SDS011;3032;49.484;11.112;2024-02-15T05:44:13;9.07;;;5.60;;
6007;SDS011;3032;49.484;11.112;2024-02-15T05:46:43;6.38;;;5.78;;
6007;SDS011;3032;49.484;11.112;2024-02-15T05:49:09;7.40;;;6.10;;
6007;SDS011;3032;49.484;11.112;2024-02-15T05:51:40;6.22;;;5.53;;
6007;SDS011;3032;49.484;11.112;2024-02-15T05:54:06;7.85;;;6.70;;
6007;SDS011;3032;49.484;11.112;2024-02-15T05:56:31;7.87;;;7.07;;
6007;SDS011;3032;49.484;11.112;2024-02-15T05:58:57;7.87;;;7.10;;
6007;SDS011;3032;49.484;11.112;2024-02-15T06:01:23;9.30;;;5.90;;
6007;SDS011;3032;49.484;11.112;2024-02-15T06:03:49;8.87;;;7.63;;
6007;SDS011;3032;49.484;11.112;2024-02-15T06:06:15;8.55;;;6.43;;
6007;SDS011;3032;49.484;11.112;2024-02-15T06:08:41;6.80;;;6.10;;
6007;SDS011;3032;49.484;11.112;2024-02-15T06:11:06;7.40;;;6.00;;
6007;SDS011;3032;49.484;11.112;2024-02-15T06:13:33;6.18;;;5.60;;
6007;SDS011;3032;49.484;11.112;2024-02-15T06:15:58;8.07;;;6.47;;
6007;SDS011;3032;49.484;11.112;2024-02-15T06:18:26;8.13;;;7.32;;
6007;SDS011;3032;49.484;11.112;2024-02-15T06:20:57;6.40;;;5.25;;
6007;SDS011;3032;49.484;11.112;2024-02-15T06:23:25;8.95;;;6.35;;
6007;SDS011;3032;49.484;11.112;2024-02-15T06:25:52;12.23;;;6.38;;
6007;SDS011;3032;49.484;11.112;2024-02-15T06:28:20;9.30;;;7.70;;
6007;SDS011;3032;49.484;11.112;2024-02-15T06:31:04;9.05;;;7.25;;
6007;SDS011;3032;49.484;11.112;2024-02-15T06:33:52;6.03;;;5.47;;
6007;SDS011;3032;49.484;11.112;2024-02-15T06:36:40;6.10;;;5.30;;
6007;SDS011;3032;49.484;11.112;2024-02-15T06:39:24;7.65;;;6.20;;
6007;SDS011;3032;49.484;11.112;2024-02-15T06:42:14;6.35;;;5.75;;
6007;SDS011;3032;49.484;11.112;2024-02-15T06:44:44;6.75;;;6.10;;
6007;SDS011;3032;49.484;11.112;2024-02-15T06:47:11;7.72;;;5.70;;
6007;SDS011;3032;49.484;11.112;2024-02-15T06:49:40;7.88;;;5.43;;
6007;SDS011;3032;49.484;11.112;2024-02-15T06:52:06;8.75;;;6.40;;
6007;SDS011;3032;49.484;11.112;2024-02-15T06:54:33;6.65;;;6.05;;
6007;SDS011;3032;49.484;11.112;2024-02-15T06:57:00;8.65;;;6.97;;
6007;SDS011;3032;49.484;11.112;2024-02-15T06:59:27;8.43;;;6.65;;
6007;SDS011;3032;49.484;11.112;2024-02-15T07:01:52;9.77;;;7.00;;
6007;SDS011;3032;49.484;11.112;2024-02-15T07:04:20;7.55;;;6.20;;
6007;SDS011;3032;49.484;11.112;2024-02-15T07:06:45;14.43;;;6.30;;
6007;SDS011;3032;49.484;11.112;2024-02-15T07:09:13;5.80;;;5.30;;
6007;SDS011;3032;49.484;11.112;2024-02-15T07:11:40;9.63;;;5.80;;
6007;SDS011;3032;49.484;11.112;2024-02-15T07:14:06;8.13;;;5.30;;
6007;SDS011;3032;49.484;11.112;2024-02-15T07:16:32;9.32;;;5.40;;
6007;SDS011;3032;49.484;11.112;2024-02-15T07:18:58;9.68;;;5.72;;
6007;SDS011;3032;49.484;11.112;2024-02-15T07:21:24;10.63;;;6.60;;
6007;SDS011;3032;49.484;11.112;2024-02-15T07:23:54;9.50;;;5.10;;
6007;SDS011;3032;49.484;11.112;2024-02-15T07:26:21;13.52;;;5.15;;
6007;SDS011;3032;49.484;11.112;2024-02-15T07:28:49;8.13;;;5.25;;
6007;SDS011;3032;49.484;11.112;2024-02-15T07:31:17;13.60;;;6.97;;
6007;SDS011;3032;49.484;11.112;2024-02-15T07:33:43;10.67;;;5.57;;
6007;SDS011;3032;49.484;11.112;2024-02-15T07:36:08;10.93;;;5.23;;
6007;SDS011;3032;49.484;11.112;2024-02-15T07:38:34;9.32;;;5.57;;
6007;SDS011;3032;49.484;11.112;2024-02-15T07:41:00;7.40;;;6.10;;
6007;SDS011;3032;49.484;11.112;2024-02-15T07:43:25;8.50;;;4.97;;
6007;SDS011;3032;49.484;11.112;2024-02-15T07:45:52;7.78;;;5.18;;
6007;SDS011;3032;49.484;11.112;2024-02-15T07:48:18;4.93;;;4.40;;
6007;SDS011;3032;49.484;11.112;2024-02-15T07:50:43;8.97;;;5.03;;
6007;SDS011;3032;49.484;11.112;2024-02-15T07:53:09;12.95;;;5.20;;
6007;SDS011;3032;49.484;11.112;2024-02-15T07:55:36;8.23;;;5.05;;
6007;SDS011;3032;49.484;11.112;2024-02-15T07:58:03;11.05;;;5.88;;
6007;SDS011;3032;49.484;11.112;2024-02-15T08:00:29;8.98;;;5.70;;
6007;SDS011;3032;49.484;11.112;2024-02-15T08:02:55;9.70;;;5.50;;
6007;SDS011;3032;49.484;11.112;2024-02-15T08:05:22;13.13;;;5.90;;
6007;SDS011;3032;49.484;11.112;2024-02-15T08:07:48;10.00;;;5.30;;
6007;SDS011;3032;49.484;11.112;2024-02-15T08:10:14;12.00;;;5.25;;
6007;SDS011;3032;49.484;11.112;2024-02-15T08:12:41;9.32;;;5.85;;
6007;SDS011;3032;49.484;11.112;2024-02-15T08:15:07;15.65;;;5.90;;
6007;SDS011;3032;49.484;11.112;2024-02-15T08:17:43;11.50;;;5.55;;
6007;SDS011;3032;49.484;11.112;2024-02-15T08:20:13;10.27;;;5.07;;
6007;SDS011;3032;49.484;11.112;2024-02-15T08:22:39;8.85;;;4.82;;
6007;SDS011;3032;49.484;11.112;2024-02-15T08:25:06;8.77;;;5.43;;
6007;SDS011;3032;49.484;11.112;2024-02-15T08:27:35;6.78;;;4.70;;
6007;SDS011;3032;49.484;11.112;2024-02-15T08:30:09;13.38;;;4.80;;
6007;SDS011;3032;49.484;11.112;2024-02-15T08:32:36;10.27;;;5.95;;
6007;SDS011;3032;49.484;11.112;2024-02-15T08:35:05;7.35;;;4.75;;
6007;SDS011;3032;49.484;11.112;2024-02-15T08:37:31;5.45;;;4.55;;
6007;SDS011;3032;49.484;11.112;2024-02-15T08:39:59;7.95;;;4.55;;
6007;SDS011;3032;49.484;11.112;2024-02-15T08:42:27;7.25;;;5.05;;
6007;SDS011;3032;49.484;11.112;2024-02-15T08:44:52;6.93;;;4.40;;
6007;SDS011;3032;49.484;11.112;2024-02-15T08:47:18;7.73;;;4.63;;
6007;SDS011;3032;49.484;11.112;2024-02-15T08:49:43;6.97;;;4.67;;
6007;SDS011;3032;49.484;11.112;2024-02-15T08:52:09;11.60;;;4.80;;
6007;SDS011;3032;49.484;11.112;2024-02-15T08:54:35;4.27;;;3.87;;
6007;SDS011;3032;49.484;11.112;2024-02-15T08:57:03;8.45;;;4.78;;
6007;SDS011;3032;49.484;11.112;2024-02-15T08:59:29;8.18;;;4.40;;
6007;SDS011;3032;49.484;11.112;2024-02-15T09:01:55;7.70;;;5.03;;
6007;SDS011;3032;49.484;11.112;2024-02-15T09:04:22;6.28;;;4.93;;
6007;SDS011;3032;49.484;11.112;2024-02-15T09:06:49;5.18;;;4.30;;
6007;SDS011;3032;49.484;11.112;2024-02-15T09:09:16;8.52;;;4.40;;
6007;SDS011;3032;49.484;11.112;2024-02-15T09:11:41;8.80;;;4.43;;
6007;SDS011;3032;49.484;11.112;2024-02-15T09:14:07;6.53;;;4.30;;
6007;SDS011;3032;49.484;11.112;2024-02-15T09:16:35;5.45;;;4.53;;
6007;SDS011;3032;49.484;11.112;2024-02-15T09:19:01;4.68;;;3.65;;
6007;SDS011;3032;49.484;11.112;2024-02-15T09:21:27;6.17;;;4.30;;
6007;SDS011;3032;49.484;11.112;2024-02-15T09:23:54;5.85;;;3.63;;
6007;SDS011;3032;49.484;11.112;2024-02-15T09:26:19;6.33;;;4.30;;
6007;SDS011;3032;49.484;11.112;2024-02-15T09:28:45;5.33;;;3.20;;
6007;SDS011;3032;49.484;11.112;2024-02-15T09:31:14;5.80;;;3.20;;
6007;SDS011;3032;49.484;11.112;2024-02-15T09:33:40;3.88;;;3.40;;
6007;SDS011;3032;49.484;11.112;2024-02-15T09:36:05;6.70;;;4.30;;
6007;SDS011;3032;49.484;11.112;2024-02-15T09:38:31;9.07;;;3.80;;
6007;SDS011;3032;49.484;11.112;2024-02-15T09:40:57;5.40;;;3.90;;
6007;SDS011;3032;49.484;11.112;2024-02-15T09:43:23;3.50;;;3.20;;
6007;SDS011;3032;49.484;11.112;2024-02-15T09:45:54;4.65;;;4.07;;
6007;SDS011;3032;49.484;11.112;2024-02-15T09:48:19;3.53;;;3.23;;
6007;SDS011;3032;49.484;11.112;2024-02-15T09:50:49;3.85;;;3.30;;
6007;SDS011;3032;49.484;11.112;2024-02-15T09:53:20;3.90;;;3.33;;
6007;SDS011;3032;49.484;11.112;2024-02-15T09:55:46;3.60;;;3.35;;
6007;SDS011;3032;49.484;11.112;2024-02-15T09:58:13;4.00;;;3.60;;
6007;SDS011;3032;49.484;11.112;2024-02-15T10:00:40;3.58;;;3.30;;
6007;SDS011;3032;49.484;11.112;2024-02-15T10:03:05;3.60;;;2.73;;
6007;SDS011;3032;49.484;11.112;2024-02-15T10:05:34;4.25;;;2.75;;
6007;SDS011;3032;49.484;11.112;2024-02-15T10:08:00;6.20;;;3.40;;
6007;SDS011;3032;49.484;11.112;2024-02-15T10:10:26;3.00;;;2.80;;
6007;SDS011;3032;49.484;11.112;2024-02-15T10:12:53;3.20;;;2.90;;
6007;SDS011;3032;49.484;11.112;2024-02-15T10:15:36;3.10;;;2.83;;
6007;SDS011;3032;49.484;11.112;2024-02-15T10:18:03;6.38;;;2.58;;
6007;SDS011;3032;49.484;11.112;2024-02-15T10:20:32;7.93;;;3.20;;
6007;SDS011;3032;49.484;11.112;2024-02-15T10:25:28;6.20;;;3.20;;
6007;SDS011;3032;49.484;11.112;2024-02-15T10:28:01;5.25;;;3.35;;
6007;SDS011;3032;49.484;11.112;2024-02-15T10:30:28;3.33;;;3.13;;
6007;SDS011;3032;49.484;11.112;2024-02-15T10:32:54;3.45;;;3.10;;
6007;SDS011;3032;49.484;11.112;2024-02-15T10:35:21;2.72;;;2.63;;
6007;SDS011;3032;49.484;11.112;2024-02-15T10:37:47;2.80;;;2.60;;
6007;SDS011;3032;49.484;11.112;2024-02-15T10:40:17;3.90;;;2.95;;
6007;SDS011;3032;49.484;11.112;2024-02-15T10:42:43;5.32;;;2.92;;
6007;SDS011;3032;49.484;11.112;2024-02-15T10:45:14;2.65;;;2.45;;
6007;SDS011;3032;49.484;11.112;2024-02-15T10:47:42;2.75;;;2.55;;
6007;SDS011;3032;49.484;11.112;2024-02-15T10:50:09;2.97;;;2.75;;
6007;SDS011;3032;49.484;11.112;2024-02-15T10:52:36;5.45;;;3.00;;
6007;SDS011;3032;49.484;11.112;2024-02-15T10:55:05;3.47;;;2.60;;
6007;SDS011;3032;49.484;11.112;2024-02-15T10:57:39;6.47;;;2.85;;
6007;SDS011;3032;49.484;11.112;2024-02-15T11:00:10;2.17;;;1.98;;
6007;SDS011;3032;49.484;11.112;2024-02-15T11:03:07;2.90;;;2.60;;
6007;SDS011;3032;49.484;11.112;2024-02-15T11:05:35;2.75;;;2.47;;
6007;SDS011;3032;49.484;11.112;2024-02-15T11:08:05;3.05;;;2.78;;
6007;SDS011;3032;49.484;11.112;2024-02-15T11:10:34;1.95;;;1.80;;
6007;SDS011;3032;49.484;11.112;2024-02-15T11:13:00;4.97;;;2.45;;
6007;SDS011;3032;49.484;11.112;2024-02-15T11:15:40;3.70;;;2.25;;
6007;SDS011;3032;49.484;11.112;2024-02-15T11:18:41;2.60;;;2.30;;
6007;SDS011;3032;49.484;11.112;2024-02-15T11:21:07;2.75;;;2.25;;
6007;SDS011;3032;49.484;11.112;2024-02-15T11:23:32;2.77;;;1.80;;
6007;SDS011;3032;49.484;11.112;2024-02-15T11:25:58;2.20;;;1.95;;
6007;SDS011;3032;49.484;11.112;2024-02-15T11:30:54;2.55;;;1.90;;
6007;SDS011;3032;49.484;11.112;2024-02-15T11:33:33;1.75;;;1.40;;
6007;SDS011;3032;49.484;11.112;2024-02-15T11:36:05;2.65;;;2.10;;
6007;SDS011;3032;49.484;11.112;2024-02-15T11:38:36;3.75;;;2.00;;
6007;SDS011;3032;49.484;11.112;2024-02-15T11:41:05;2.58;;;1.83;;
6007;SDS011;3032;49.484;11.112;2024-02-15T11:46:20;2.35;;;1.55;;
6007;SDS011;3032;49.484;11.112;2024-02-15T11:48:46;1.98;;;1.73;;
6007;SDS011;3032;49.484;11.112;2024-02-15T11:54:02;2.90;;;2.05;;
6007;SDS011;3032;49.484;11.112;2024-02-15T11:56:53;2.20;;;2.00;;
6007;SDS011;3032;49.484;11.112;2024-02-15T11:59:43;2.88;;;1.80;;
6007;SDS011;3032;49.484;11.112;2024-02-15T12:02:40;2.65;;;1.70;;
6007;SDS011;3032;49.484;11.112;2024-02-15T12:05:25;1.98;;;1.60;;
6007;SDS011;3032;49.484;11.112;2024-02-15T12:08:10;2.90;;;1.63;;
6007;SDS011;3032;49.484;11.112;2024-02-15T12:10:58;3.40;;;1.73;;
6007;SDS011;3032;49.484;11.112;2024-02-15T12:13:52;2.42;;;1.50;;
6007;SDS011;3032;49.484;11.112;2024-02-15T12:16:36;2.97;;;1.40;;
6007;SDS011;3032;49.484;11.112;2024-02-15T12:19:20;3.95;;;1.85;;
6007;SDS011;3032;49.484;11.112;2024-02-15T12:21:46;2.35;;;1.50;;
6007;SDS011;3032;49.484;11.112;2024-02-15T12:24:13;3.33;;;1.38;;
6007;SDS011;3032;49.484;11.112;2024-02-15T12:26:42;1.80;;;1.70;;
6007;SDS011;3032;49.484;11.112;2024-02-15T12:29:07;1.20;;;1.10;;
6007;SDS011;3032;49.484;11.112;2024-02-15T12:31:35;0.88;;;0.85;;
6007;SDS011;3032;49.484;11.112;2024-02-15T12:34:03;1.48;;;1.00;;
6007;SDS011;3032;49.484;11.112;2024-02-15T12:36:32;1.75;;;1.10;;
6007;SDS011;3032;49.484;11.112;2024-02-15T12:38:59;2.90;;;1.38;;
6007;SDS011;3032;49.484;11.112;2024-02-15T12:41:26;2.72;;;1.27;;
6007;SDS011;3032;49.484;11.112;2024-02-15T12:43:52;2.37;;;1.43;;
6007;SDS011;3032;49.484;11.112;2024-02-15T12:46:19;5.38;;;1.30;;
6007;SDS011;3032;49.484;11.112;2024-02-15T12:48:45;1.10;;;1.00;;
6007;SDS011;3032;49.484;11.112;2024-02-15T12:51:14;1.45;;;1.10;;
6007;SDS011;3032;49.484;11.112;2024-02-15T12:53:40;2.00;;;1.10;;
6007;SDS011;3032;49.484;11.112;2024-02-15T12:56:09;1.63;;;1.30;;
6007;SDS011;3032;49.484;11.112;2024-02-15T12:58:34;2.03;;;1.60;;
6007;SDS011;3032;49.484;11.112;2024-02-15T13:01:00;1.63;;;1.10;;
6007;SDS011;3032;49.484;11.112;2024-02-15T13:03:26;4.03;;;1.20;;
6007;SDS011;3032;49.484;11.112;2024-02-15T13:05:52;3.67;;;1.33;;
6007;SDS011;3032;49.484;11.112;2024-02-15T13:08:18;1.30;;;1.20;;
6007;SDS011;3032;49.484;11.112;2024-02-15T13:10:44;1.85;;;0.82;;
6007;SDS011;3032;49.484;11.112;2024-02-15T13:13:11;3.60;;;1.30;;
6007;SDS011;3032;49.484;11.112;2024-02-15T13:15:39;1.50;;;1.10;;
6007;SDS011;3032;49.484;11.112;2024-02-15T13:18:05;1.80;;;1.20;;
6007;SDS011;3032;49.484;11.112;2024-02-15T13:20:34;1.95;;;1.30;;
6007;SDS011;3032;49.484;11.112;2024-02-15T13:23:06;2.15;;;1.10;;
6007;SDS011;3032;49.484;11.112;2024-02-15T13:25:40;3.67;;;1.15;;
6007;SDS011;3032;49.484;11.112;2024-02-15T13:28:08;2.25;;;1.30;;
6007;SDS011;3032;49.484;11.112;2024-02-15T13:30:35;2.67;;;1.20;;
6007;SDS011;3032;49.484;11.112;2024-02-15T13:33:01;3.80;;;1.63;;
6007;SDS011;3032;49.484;11.112;2024-02-15T13:35:27;2.23;;;1.10;;
6007;SDS011;3032;49.484;11.112;2024-02-15T13:37:53;1.47;;;1.13;;
6007;SDS011;3032;49.484;11.112;2024-02-15T13:40:20;1.50;;;1.35;;
6007;SDS011;3032;49.484;11.112;2024-02-15T13:42:48;2.85;;;1.30;;
6007;SDS011;3032;49.484;11.112;2024-02-15T13:45:26;2.03;;;1.08;;
6007;SDS011;3032;49.484;11.112;2024-02-15T13:47:57;4.78;;;1.05;;
6007;SDS011;3032;49.484;11.112;2024-02-15T13:50:24;2.20;;;0.93;;
6007;SDS011;3032;49.484;11.112;2024-02-15T13:52:49;2.60;;;1.10;;
6007;SDS011;3032;49.484;11.112;2024-02-15T13:55:16;1.20;;;1.10;;
6007;SDS011;3032;49.484;11.112;2024-02-15T13:57:45;6.13;;;1.50;;
6007;SDS011;3032;49.484;11.112;2024-02-15T14:00:12;4.45;;;1.60;;
6007;SDS011;3032;49.484;11.112;2024-02-15T14:02:55;2.55;;;1.20;;
6007;SDS011;3032;49.484;11.112;2024-02-15T14:05:23;5.88;;;1.40;;
6007;SDS011;3032;49.484;11.112;2024-02-15T14:07:51;2.80;;;1.48;;
6007;SDS011;3032;49.484;11.112;2024-02-15T14:10:19;1.85;;;1.10;;
6007;SDS011;3032;49.484;11.112;2024-02-15T14:12:46;2.20;;;1.35;;
6007;SDS011;3032;49.484;11.112;2024-02-15T14:15:12;5.60;;;1.40;;
6007;SDS011;3032;49.484;11.112;2024-02-15T14:17:38;3.63;;;1.25;;
6007;SDS011;3032;49.484;11.112;2024-02-15T14:20:04;1.80;;;1.40;;
6007;SDS011;3032;49.484;11.112;2024-02-15T14:22:34;1.85;;;1.40;;
6007;SDS011;3032;49.484;11.112;2024-02-15T14:25:00;3.75;;;1.30;;
6007;SDS011;3032;49.484;11.112;2024-02-15T14:27:26;1.30;;;1.20;;
6007;SDS011;3032;49.484;11.112;2024-02-15T14:29:52;2.37;;;1.30;;
6007;SDS011;3032;49.484;11.112;2024-02-15T14:32:36;2.00;;;1.42;;
6007;SDS011;3032;49.484;11.112;2024-02-15T14:35:20;1.30;;;1.20;;
6007;SDS011;3032;49.484;11.112;2024-02-15T14:37:46;2.42;;;1.50;;
6007;SDS011;3032;49.484;11.112;2024-02-15T14:40:12;2.13;;;1.57;;
6007;SDS011;3032;49.484;11.112;2024-02-15T14:42:42;3.25;;;1.67;;
6007;SDS011;3032;49.484;11.112;2024-02-15T14:45:09;2.77;;;2.07;;
6007;SDS011;3032;49.484;11.112;2024-02-15T14:47:35;4.28;;;1.83;;
6007;SDS011;3032;49.484;11.112;2024-02-15T14:50:01;1.50;;;1.40;;
6007;SDS011;3032;49.484;11.112;2024-02-15T14:52:27;1.38;;;1.27;;
6007;SDS011;3032;49.484;11.112;2024-02-15T14:54:53;2.77;;;1.47;;
6007;SDS011;3032;49.484;11.112;2024-02-15T14:57:19;2.78;;;1.40;;
6007;SDS011;3032;49.484;11.112;2024-02-15T14:59:45;2.90;;;1.60;;
6007;SDS011;3032;49.484;11.112;2024-02-15T15:02:10;2.23;;;1.63;;
6007;SDS011;3032;49.484;11.112;2024-02-15T15:04:36;2.30;;;1.50;;
6007;SDS011;3032;49.484;11.112;2024-02-15T15:07:21;1.98;;;1.63;;
6007;SDS011;3032;49.484;11.112;2024-02-15T15:10:06;4.55;;;2.22;;
6007;SDS011;3032;49.484;11.112;2024-02-15T15:12:50;3.40;;;1.92;;
6007;SDS011;3032;49.484;11.112;2024-02-15T15:15:16;3.70;;;1.50;;
6007;SDS011;3032;49.484;11.112;2024-02-15T15:17:43;3.50;;;1.80;;